sensor_id;sensor_type;location;lat;lon;timestamp;P1;durP1;ratioP1;P2;durP2;ratioP2
35114;SDS011;21292;52.416;13.046;2024-03-25T00:01:51;6.13;;;2.50;;
35114;SDS011;21292;52.416;13.046;2024-03-25T00:04:18;3.63;;;2.25;;
35114;SDS011;21292;52.416;13.046;2024-03-25T00:06:46;5.32;;;2.85;;
35114;SDS011;21292;52.416;13.046;2024-03-25T00:09:13;6.38;;;2.85;;
35114;SDS011;21292;52.416;13.046;2024-03-25T00:11:40;4.90;;;2.90;;
35114;SDS011;21292;52.416;13.046;2024-03-25T00:14:07;4.68;;;2.70;;
35114;SDS011;21292;52.416;13.046;2024-03-25T00:16:34;4.35;;;3.13;;
35114;SDS011;21292;52.416;13.046;2024-03-25T00:19:01;6.03;;;2.92;;
35114;SDS011;21292;52.416;13.046;2024-03-25T00:21:27;8.82;;;3.35;;
35114;SDS011;21292;52.416;13.046;2024-03-25T00:23:54;8.77;;;3.55;;
35114;SDS011;21292;52.416;13.046;2024-03-25T00:26:22;4.68;;;3.28;;
35114;SDS011;21292;52.416;13.046;2024-03-25T00:28:50;10.68;;;4.40;;
35114;SDS011;21292;52.416;13.046;2024-03-25T00:31:16;6.22;;;3.55;;
35114;SDS011;21292;52.416;13.046;2024-03-25T00:33:43;5.00;;;3.03;;
35114;SDS011;21292;52.416;13.046;2024-03-25T00:36:09;6.57;;;4.07;;
35114;SDS011;21292;52.416;13.046;2024-03-25T00:38:36;8.38;;;4.22;;
35114;SDS011;21292;52.416;13.046;2024-03-25T00:41:02;7.18;;;3.90;;
35114;SDS011;21292;52.416;13.046;2024-03-25T00:43:29;8.05;;;3.78;;
35114;SDS011;21292;52.416;13.046;2024-03-25T00:45:56;7.38;;;4.55;;
35114;SDS011;21292;52.416;13.046;2024-03-25T00:48:23;7.78;;;4.00;;
35114;SDS011;21292;52.416;13.046;2024-03-25T00:50:49;11.32;;;4.28;;
35114;SDS011;21292;52.416;13.046;2024-03-25T00:53:16;6.63;;;3.90;;
35114;SDS011;21292;52.416;13.046;2024-03-25T00:55:44;7.88;;;3.88;;
35114;SDS011;21292;52.416;13.046;2024-03-25T00:58:12;13.82;;;4.18;;
35114;SDS011;21292;52.416;13.046;2024-03-25T01:00:38;8.32;;;4.63;;
35114;SDS011;21292;52.416;13.046;2024-03-25T01:03:05;7.30;;;3.67;;
35114;SDS011;21292;52.416;13.046;2024-03-25T01:05:31;8.75;;;3.95;;
35114;SDS011;21292;52.416;13.046;2024-03-25T01:07:58;6.28;;;3.45;;
35114;SDS011;21292;52.416;13.046;2024-03-25T01:10:25;10.77;;;3.97;;
35114;SDS011;21292;52.416;13.046;2024-03-25T01:12:52;9.07;;;3.67;;
35114;SDS011;21292;52.416;13.046;2024-03-25T01:15:18;11.38;;;4.25;;
35114;SDS011;21292;52.416;13.046;2024-03-25T01:17:45;7.88;;;3.75;;
35114;SDS011;21292;52.416;13.046;2024-03-25T01:20:11;19.80;;;5.32;;
35114;SDS011;21292;52.416;13.046;2024-03-25T01:22:38;9.48;;;5.28;;
35114;SDS011;21292;52.416;13.046;2024-03-25T01:25:04;11.82;;;4.60;;
35114;SDS011;21292;52.416;13.046;2024-03-25T01:27:32;11.63;;;4.70;;
35114;SDS011;21292;52.416;13.046;2024-03-25T01:29:58;11.93;;;5.80;;
35114;SDS011;21292;52.416;13.046;2024-03-25T01:32:26;11.35;;;5.25;;
35114;SDS011;21292;52.416;13.046;2024-03-25T01:34:52;15.52;;;5.53;;
35114;SDS011;21292;52.416;13.046;2024-03-25T01:37:19;11.27;;;5.20;;
35114;SDS011;21292;52.416;13.046;2024-03-25T01:39:45;10.00;;;4.75;;
35114;SDS011;21292;52.416;13.046;2024-03-25T01:42:13;11.82;;;5.47;;
35114;SDS011;21292;52.416;13.046;2024-03-25T01:44:39;14.43;;;5.85;;
35114;SDS011;21292;52.416;13.046;2024-03-25T01:47:07;13.30;;;6.70;;
35114;SDS011;21292;52.416;13.046;2024-03-25T01:49:33;16.02;;;6.32;;
35114;SDS011;21292;52.416;13.046;2024-03-25T01:52:00;13.93;;;7.20;;
35114;SDS011;21292;52.416;13.046;2024-03-25T01:54:27;10.50;;;5.05;;
35114;SDS011;21292;52.416;13.046;2024-03-25T01:56:54;18.45;;;6.07;;
35114;SDS011;21292;52.416;13.046;2024-03-25T01:59:21;13.23;;;5.35;;
35114;SDS011;21292;52.416;13.046;2024-03-25T02:01:49;11.48;;;5.85;;
35114;SDS011;21292;52.416;13.046;2024-03-25T02:04:16;11.95;;;5.32;;
35114;SDS011;21292;52.416;13.046;2024-03-25T02:06:43;16.40;;;5.70;;
35114;SDS011;21292;52.416;13.046;2024-03-25T02:09:10;14.15;;;5.93;;
35114;SDS011;21292;52.416;13.046;2024-03-25T02:11:38;15.32;;;6.63;;
35114;SDS011;21292;52.416;13.046;2024-03-25T02:14:04;10.90;;;5.28;;
35114;SDS011;21292;52.416;13.046;2024-03-25T02:16:31;15.48;;;5.10;;
35114;SDS011;21292;52.416;13.046;2024-03-25T02:18:57;12.45;;;5.05;;
35114;SDS011;21292;52.416;13.046;2024-03-25T02:21:24;11.70;;;4.72;;
35114;SDS011;21292;52.416;13.046;2024-03-25T02:23:51;10.00;;;4.75;;
35114;SDS011;21292;52.416;13.046;2024-03-25T02:26:20;11.70;;;5.20;;
35114;SDS011;21292;52.416;13.046;2024-03-25T02:28:46;11.88;;;4.80;;
35114;SDS011;21292;52.416;13.046;2024-03-25T02:31:13;12.95;;;5.57;;
35114;SDS011;21292;52.416;13.046;2024-03-25T02:33:39;9.02;;;3.90;;
35114;SDS011;21292;52.416;13.046;2024-03-25T02:36:08;8.20;;;4.13;;
35114;SDS011;21292;52.416;13.046;2024-03-25T02:38:34;9.70;;;3.80;;
35114;SDS011;21292;52.416;13.046;2024-03-25T02:41:02;8.15;;;3.65;;
35114;SDS011;21292;52.416;13.046;2024-03-25T02:43:28;8.20;;;3.63;;
35114;SDS011;21292;52.416;13.046;2024-03-25T02:45:55;6.63;;;2.97;;
35114;SDS011;21292;52.416;13.046;2024-03-25T02:48:21;7.68;;;3.17;;
35114;SDS011;21292;52.416;13.046;2024-03-25T02:50:48;10.13;;;3.00;;
35114;SDS011;21292;52.416;13.046;2024-03-25T02:53:15;7.90;;;3.13;;
35114;SDS011;21292;52.416;13.046;2024-03-25T02:55:42;8.45;;;4.82;;
35114;SDS011;21292;52.416;13.046;2024-03-25T02:58:08;8.57;;;3.28;;
35114;SDS011;21292;52.416;13.046;2024-03-25T03:00:35;7.03;;;2.60;;
35114;SDS011;21292;52.416;13.046;2024-03-25T03:03:02;4.68;;;2.55;;
35114;SDS011;21292;52.416;13.046;2024-03-25T03:05:29;4.07;;;2.53;;
35114;SDS011;21292;52.416;13.046;2024-03-25T03:07:55;3.33;;;2.30;;
35114;SDS011;21292;52.416;13.046;2024-03-25T03:10:23;9.13;;;2.47;;
35114;SDS011;21292;52.416;13.046;2024-03-25T03:12:49;8.73;;;2.65;;
35114;SDS011;21292;52.416;13.046;2024-03-25T03:15:17;4.35;;;2.58;;
35114;SDS011;21292;52.416;13.046;2024-03-25T03:17:43;7.57;;;2.40;;
35114;SDS011;21292;52.416;13.046;2024-03-25T03:20:10;5.20;;;2.90;;
35114;SDS011;21292;52.416;13.046;2024-03-25T03:22:37;4.53;;;2.42;;
35114;SDS011;21292;52.416;13.046;2024-03-25T03:25:04;8.32;;;2.47;;
35114;SDS011;21292;52.416;13.046;2024-03-25T03:27:30;7.18;;;2.92;;
35114;SDS011;21292;52.416;13.046;2024-03-25T03:29:58;7.13;;;3.08;;
35114;SDS011;21292;52.416;13.046;2024-03-25T03:32:24;8.52;;;2.95;;
35114;SDS011;21292;52.416;13.046;2024-03-25T03:34:51;12.68;;;2.95;;
35114;SDS011;21292;52.416;13.046;2024-03-25T03:37:17;3.90;;;2.35;;
35114;SDS011;21292;52.416;13.046;2024-03-25T03:39:44;7.13;;;3.00;;
35114;SDS011;21292;52.416;13.046;2024-03-25T03:42:10;7.95;;;3.00;;
35114;SDS011;21292;52.416;13.046;2024-03-25T03:44:37;10.20;;;3.05;;
35114;SDS011;21292;52.416;13.046;2024-03-25T03:47:03;8.63;;;2.88;;
35114;SDS011;21292;52.416;13.046;2024-03-25T03:49:31;9.27;;;2.83;;
35114;SDS011;21292;52.416;13.046;2024-03-25T03:51:57;8.70;;;2.55;;
35114;SDS011;21292;52.416;13.046;2024-03-25T03:54:24;6.53;;;2.70;;
35114;SDS011;21292;52.416;13.046;2024-03-25T03:56:50;14.40;;;4.05;;
35114;SDS011;21292;52.416;13.046;2024-03-25T03:59:17;8.50;;;3.47;;
35114;SDS011;21292;52.416;13.046;2024-03-25T04:01:43;12.65;;;4.32;;
35114;SDS011;21292;52.416;13.046;2024-03-25T04:04:10;12.18;;;4.13;;
35114;SDS011;21292;52.416;13.046;2024-03-25T04:06:37;10.55;;;3.47;;
35114;SDS011;21292;52.416;13.046;2024-03-25T04:09:06;11.75;;;4.10;;
35114;SDS011;21292;52.416;13.046;2024-03-25T04:11:35;9.48;;;4.38;;
35114;SDS011;21292;52.416;13.046;2024-03-25T04:14:02;11.05;;;4.13;;
35114;SDS011;21292;52.416;13.046;2024-03-25T04:16:28;10.98;;;3.90;;
35114;SDS011;21292;52.416;13.046;2024-03-25T04:18:56;10.98;;;3.63;;
35114;SDS011;21292;52.416;13.046;2024-03-25T04:21:24;12.07;;;5.05;;
35114;SDS011;21292;52.416;13.046;2024-03-25T04:23:50;15.55;;;3.95;;
35114;SDS011;21292;52.416;13.046;2024-03-25T04:26:17;9.10;;;3.97;;
35114;SDS011;21292;52.416;13.046;2024-03-25T04:28:44;10.75;;;4.53;;
35114;SDS011;21292;52.416;13.046;2024-03-25T04:31:11;11.43;;;4.60;;
35114;SDS011;21292;52.416;13.046;2024-03-25T04:33:37;11.90;;;4.45;;
35114;SDS011;21292;52.416;13.046;2024-03-25T04:36:05;10.52;;;4.60;;
35114;SDS011;21292;52.416;13.046;2024-03-25T04:38:31;14.10;;;4.10;;
35114;SDS011;21292;52.416;13.046;2024-03-25T04:40:57;13.10;;;5.05;;
35114;SDS011;21292;52.416;13.046;2024-03-25T04:43:23;16.30;;;4.72;;
35114;SDS011;21292;52.416;13.046;2024-03-25T04:45:50;9.95;;;5.03;;
35114;SDS011;21292;52.416;13.046;2024-03-25T04:48:16;17.58;;;4.78;;
35114;SDS011;21292;52.416;13.046;2024-03-25T04:50:42;12.13;;;4.93;;
35114;SDS011;21292;52.416;13.046;2024-03-25T04:53:08;9.80;;;4.90;;
35114;SDS011;21292;52.416;13.046;2024-03-25T04:55:35;9.23;;;4.55;;
35114;SDS011;21292;52.416;13.046;2024-03-25T04:58:01;10.63;;;4.75;;
35114;SDS011;21292;52.416;13.046;2024-03-25T05:00:27;14.70;;;6.30;;
35114;SDS011;21292;52.416;13.046;2024-03-25T05:02:56;11.32;;;5.03;;
35114;SDS011;21292;52.416;13.046;2024-03-25T05:05:22;17.15;;;5.50;;
35114;SDS011;21292;52.416;13.046;2024-03-25T05:07:49;16.73;;;5.00;;
35114;SDS011;21292;52.416;13.046;2024-03-25T05:10:15;17.05;;;5.45;;
35114;SDS011;21292;52.416;13.046;2024-03-25T05:12:41;18.23;;;5.75;;
35114;SDS011;21292;52.416;13.046;2024-03-25T05:15:08;13.15;;;4.63;;
35114;SDS011;21292;52.416;13.046;2024-03-25T05:17:34;12.65;;;4.93;;
35114;SDS011;21292;52.416;13.046;2024-03-25T05:20:06;12.25;;;6.15;;
35114;SDS011;21292;52.416;13.046;2024-03-25T05:22:32;14.88;;;5.45;;
35114;SDS011;21292;52.416;13.046;2024-03-25T05:24:58;14.13;;;5.15;;
35114;SDS011;21292;52.416;13.046;2024-03-25T05:27:24;12.95;;;4.57;;
35114;SDS011;21292;52.416;13.046;2024-03-25T05:29:51;14.75;;;5.78;;
35114;SDS011;21292;52.416;13.046;2024-03-25T05:32:17;14.05;;;4.97;;
35114;SDS011;21292;52.416;13.046;2024-03-25T05:34:44;13.10;;;5.53;;
35114;SDS011;21292;52.416;13.046;2024-03-25T05:37:10;15.63;;;5.13;;
35114;SDS011;21292;52.416;13.046;2024-03-25T05:39:36;9.80;;;4.78;;
35114;SDS011;21292;52.416;13.046;2024-03-25T05:42:03;8.82;;;4.32;;
35114;SDS011;21292;52.416;13.046;2024-03-25T05:44:29;10.02;;;4.80;;
35114;SDS011;21292;52.416;13.046;2024-03-25T05:46:56;13.15;;;5.88;;
35114;SDS011;21292;52.416;13.046;2024-03-25T05:49:22;15.93;;;5.35;;
35114;SDS011;21292;52.416;13.046;2024-03-25T05:51:48;14.82;;;5.00;;
35114;SDS011;21292;52.416;13.046;2024-03-25T05:54:14;11.65;;;4.78;;
35114;SDS011;21292;52.416;13.046;2024-03-25T05:56:41;8.80;;;4.35;;
35114;SDS011;21292;52.416;13.046;2024-03-25T05:59:07;10.80;;;5.28;;
35114;SDS011;21292;52.416;13.046;2024-03-25T06:01:34;22.90;;;5.93;;
35114;SDS011;21292;52.416;13.046;2024-03-25T06:04:00;8.80;;;3.88;;
35114;SDS011;21292;52.416;13.046;2024-03-25T06:06:26;9.75;;;4.55;;
35114;SDS011;21292;52.416;13.046;2024-03-25T06:08:52;17.45;;;4.40;;
35114;SDS011;21292;52.416;13.046;2024-03-25T06:11:19;12.20;;;4.43;;
35114;SDS011;21292;52.416;13.046;2024-03-25T06:13:45;8.10;;;4.70;;
35114;SDS011;21292;52.416;13.046;2024-03-25T06:16:12;15.20;;;5.05;;
35114;SDS011;21292;52.416;13.046;2024-03-25T06:18:41;15.00;;;4.72;;
35114;SDS011;21292;52.416;13.046;2024-03-25T06:21:07;8.57;;;4.47;;
35114;SDS011;21292;52.416;13.046;2024-03-25T06:23:34;11.50;;;4.55;;
35114;SDS011;21292;52.416;13.046;2024-03-25T06:26:00;16.27;;;5.32;;
35114;SDS011;21292;52.416;13.046;2024-03-25T06:28:26;11.63;;;4.30;;
35114;SDS011;21292;52.416;13.046;2024-03-25T06:30:53;11.65;;;4.28;;
35114;SDS011;21292;52.416;13.046;2024-03-25T06:33:37;10.82;;;4.07;;
35114;SDS011;21292;52.416;13.046;2024-03-25T06:36:22;12.55;;;4.63;;
35114;SDS011;21292;52.416;13.046;2024-03-25T06:38:48;12.93;;;5.18;;
35114;SDS011;21292;52.416;13.046;2024-03-25T06:41:15;9.40;;;4.30;;
35114;SDS011;21292;52.416;13.046;2024-03-25T06:43:41;7.82;;;4.45;;
35114;SDS011;21292;52.416;13.046;2024-03-25T06:46:07;13.43;;;5.40;;
35114;SDS011;21292;52.416;13.046;2024-03-25T06:48:34;14.88;;;4.32;;
35114;SDS011;21292;52.416;13.046;2024-03-25T06:51:00;12.25;;;4.60;;
35114;SDS011;21292;52.416;13.046;2024-03-25T06:53:27;11.65;;;5.55;;
35114;SDS011;21292;52.416;13.046;2024-03-25T06:56:00;12.52;;;5.47;;
35114;SDS011;21292;52.416;13.046;2024-03-25T06:58:27;7.32;;;4.82;;
35114;SDS011;21292;52.416;13.046;2024-03-25T07:00:55;13.73;;;4.32;;
35114;SDS011;21292;52.416;13.046;2024-03-25T07:03:22;12.98;;;5.53;;
35114;SDS011;21292;52.416;13.046;2024-03-25T07:05:50;12.50;;;4.65;;
35114;SDS011;21292;52.416;13.046;2024-03-25T07:08:18;10.60;;;4.00;;
35114;SDS011;21292;52.416;13.046;2024-03-25T07:10:45;14.30;;;4.55;;
35114;SDS011;21292;52.416;13.046;2024-03-25T07:13:11;8.73;;;4.90;;
35114;SDS011;21292;52.416;13.046;2024-03-25T07:15:38;29.27;;;7.22;;
35114;SDS011;21292;52.416;13.046;2024-03-25T07:18:04;15.35;;;5.05;;
35114;SDS011;21292;52.416;13.046;2024-03-25T07:20:31;10.77;;;4.68;;
35114;SDS011;21292;52.416;13.046;2024-03-25T07:22:57;13.10;;;4.75;;
35114;SDS011;21292;52.416;13.046;2024-03-25T07:25:24;9.98;;;4.65;;
35114;SDS011;21292;52.416;13.046;2024-03-25T07:27:51;17.42;;;4.93;;
35114;SDS011;21292;52.416;13.046;2024-03-25T07:30:18;5.95;;;3.53;;
35114;SDS011;21292;52.416;13.046;2024-03-25T07:32:44;12.23;;;4.38;;
35114;SDS011;21292;52.416;13.046;2024-03-25T07:35:10;7.15;;;4.50;;
35114;SDS011;21292;52.416;13.046;2024-03-25T07:37:38;10.38;;;4.88;;
35114;SDS011;21292;52.416;13.046;2024-03-25T07:40:05;10.10;;;4.60;;
35114;SDS011;21292;52.416;13.046;2024-03-25T07:42:31;15.52;;;4.47;;
35114;SDS011;21292;52.416;13.046;2024-03-25T07:44:58;11.57;;;4.47;;
35114;SDS011;21292;52.416;13.046;2024-03-25T07:47:24;11.75;;;4.38;;
35114;SDS011;21292;52.416;13.046;2024-03-25T07:49:50;8.38;;;4.45;;
35114;SDS011;21292;52.416;13.046;2024-03-25T07:52:16;9.15;;;4.72;;
35114;SDS011;21292;52.416;13.046;2024-03-25T07:54:42;11.35;;;4.78;;
35114;SDS011;21292;52.416;13.046;2024-03-25T07:57:09;7.43;;;3.78;;
35114;SDS011;21292;52.416;13.046;2024-03-25T07:59:35;8.93;;;4.13;;
35114;SDS011;21292;52.416;13.046;2024-03-25T08:02:02;9.25;;;3.85;;
35114;SDS011;21292;52.416;13.046;2024-03-25T08:04:28;11.15;;;4.38;;
35114;SDS011;21292;52.416;13.046;2024-03-25T08:06:54;8.60;;;4.35;;
35114;SDS011;21292;52.416;13.046;2024-03-25T08:09:21;12.93;;;3.80;;
35114;SDS011;21292;52.416;13.046;2024-03-25T08:11:47;12.13;;;4.10;;
35114;SDS011;21292;52.416;13.046;2024-03-25T08:14:13;10.00;;;4.18;;
35114;SDS011;21292;52.416;13.046;2024-03-25T08:16:40;9.18;;;3.10;;
35114;SDS011;21292;52.416;13.046;2024-03-25T08:19:06;10.98;;;3.58;;
35114;SDS011;21292;52.416;13.046;2024-03-25T08:21:32;14.05;;;4.47;;
35114;SDS011;21292;52.416;13.046;2024-03-25T08:23:58;13.00;;;3.80;;
35114;SDS011;21292;52.416;13.046;2024-03-25T08:26:25;7.88;;;3.65;;
35114;SDS011;21292;52.416;13.046;2024-03-25T08:28:51;9.70;;;4.07;;
35114;SDS011;21292;52.416;13.046;2024-03-25T08:31:17;10.25;;;3.92;;
35114;SDS011;21292;52.416;13.046;2024-03-25T08:33:43;9.80;;;4.22;;
35114;SDS011;21292;52.416;13.046;2024-03-25T08:36:09;7.47;;;3.67;;
35114;SDS011;21292;52.416;13.046;2024-03-25T08:38:36;9.27;;;3.88;;
35114;SDS011;21292;52.416;13.046;2024-03-25T08:41:02;7.65;;;3.55;;
35114;SDS011;21292;52.416;13.046;2024-03-25T08:43:28;12.32;;;4.60;;
35114;SDS011;21292;52.416;13.046;2024-03-25T08:45:55;7.32;;;3.25;;
35114;SDS011;21292;52.416;13.046;2024-03-25T08:48:21;9.85;;;3.58;;
35114;SDS011;21292;52.416;13.046;2024-03-25T08:50:47;9.15;;;3.08;;
35114;SDS011;21292;52.416;13.046;2024-03-25T08:53:14;7.13;;;3.40;;
35114;SDS011;21292;52.416;13.046;2024-03-25T08:55:44;6.55;;;3.92;;
35114;SDS011;21292;52.416;13.046;2024-03-25T08:58:12;9.23;;;3.78;;
35114;SDS011;21292;52.416;13.046;2024-03-25T09:00:38;6.50;;;2.95;;
35114;SDS011;21292;52.416;13.046;2024-03-25T09:03:05;6.57;;;3.15;;
35114;SDS011;21292;52.416;13.046;2024-03-25T09:05:31;8.57;;;3.75;;
35114;SDS011;21292;52.416;13.046;2024-03-25T09:07:58;5.78;;;3.10;;
35114;SDS011;21292;52.416;13.046;2024-03-25T09:10:25;3.97;;;3.25;;
35114;SDS011;21292;52.416;13.046;2024-03-25T09:13:09;5.70;;;3.22;;
35114;SDS011;21292;52.416;13.046;2024-03-25T09:15:36;5.53;;;3.05;;
35114;SDS011;21292;52.416;13.046;2024-03-25T09:18:02;8.52;;;2.88;;
35114;SDS011;21292;52.416;13.046;2024-03-25T09:20:28;5.68;;;2.60;;
35114;SDS011;21292;52.416;13.046;2024-03-25T09:22:54;7.10;;;2.78;;
35114;SDS011;21292;52.416;13.046;2024-03-25T09:25:20;9.25;;;3.35;;
35114;SDS011;21292;52.416;13.046;2024-03-25T09:27:47;4.85;;;2.58;;
35114;SDS011;21292;52.416;13.046;2024-03-25T09:30:18;6.00;;;2.47;;
35114;SDS011;21292;52.416;13.046;2024-03-25T09:32:44;6.00;;;2.35;;
35114;SDS011;21292;52.416;13.046;2024-03-25T09:35:11;3.95;;;2.22;;
35114;SDS011;21292;52.416;13.046;2024-03-25T09:37:37;5.78;;;2.15;;
35114;SDS011;21292;52.416;13.046;2024-03-25T09:40:04;5.57;;;2.10;;
35114;SDS011;21292;52.416;13.046;2024-03-25T09:42:36;4.93;;;3.00;;
35114;SDS011;21292;52.416;13.046;2024-03-25T09:45:16;3.72;;;2.13;;
35114;SDS011;21292;52.416;13.046;2024-03-25T09:47:46;5.03;;;1.88;;
35114;SDS011;21292;52.416;13.046;2024-03-25T09:50:16;3.28;;;2.17;;
35114;SDS011;21292;52.416;13.046;2024-03-25T09:52:42;5.15;;;2.65;;
35114;SDS011;21292;52.416;13.046;2024-03-25T09:55:08;3.42;;;1.75;;
35114;SDS011;21292;52.416;13.046;2024-03-25T09:57:34;5.97;;;2.28;;
35114;SDS011;21292;52.416;13.046;2024-03-25T10:00:02;6.00;;;2.13;;
35114;SDS011;21292;52.416;13.046;2024-03-25T10:02:28;5.97;;;2.38;;
35114;SDS011;21292;52.416;13.046;2024-03-25T10:04:55;7.50;;;3.03;;
35114;SDS011;21292;52.416;13.046;2024-03-25T10:07:22;4.57;;;2.05;;
35114;SDS011;21292;52.416;13.046;2024-03-25T10:09:49;3.92;;;2.20;;
35114;SDS011;21292;52.416;13.046;2024-03-25T10:12:16;3.80;;;2.60;;
35114;SDS011;21292;52.416;13.046;2024-03-25T10:14:42;8.32;;;2.67;;
35114;SDS011;21292;52.416;13.046;2024-03-25T10:17:09;3.33;;;2.30;;
35114;SDS011;21292;52.416;13.046;2024-03-25T10:19:35;6.57;;;2.53;;
35114;SDS011;21292;52.416;13.046;2024-03-25T10:22:02;3.90;;;2.53;;
35114;SDS011;21292;52.416;13.046;2024-03-25T10:24:38;4.90;;;2.45;;
35114;SDS011;21292;52.416;13.046;2024-03-25T10:27:05;8.63;;;2.38;;
35114;SDS011;21292;52.416;13.046;2024-03-25T10:29:32;4.97;;;3.08;;
35114;SDS011;21292;52.416;13.046;2024-03-25T10:32:01;4.28;;;2.20;;
35114;SDS011;21292;52.416;13.046;2024-03-25T10:34:28;4.57;;;2.13;;
35114;SDS011;21292;52.416;13.046;2024-03-25T10:36:56;4.95;;;2.15;;
35114;SDS011;21292;52.416;13.046;2024-03-25T10:39:26;4.65;;;2.47;;
35114;SDS011;21292;52.416;13.046;2024-03-25T10:41:56;5.72;;;2.75;;
35114;SDS011;21292;52.416;13.046;2024-03-25T10:44:24;2.92;;;2.28;;
35114;SDS011;21292;52.416;13.046;2024-03-25T10:46:51;10.30;;;3.10;;
35114;SDS011;21292;52.416;13.046;2024-03-25T10:49:23;3.85;;;2.80;;
35114;SDS011;21292;52.416;13.046;2024-03-25T10:52:00;4.95;;;2.75;;
35114;SDS011;21292;52.416;13.046;2024-03-25T10:54:28;8.82;;;3.03;;
35114;SDS011;21292;52.416;13.046;2024-03-25T10:56:56;7.85;;;2.97;;
35114;SDS011;21292;52.416;13.046;2024-03-25T10:59:26;4.82;;;2.53;;
35114;SDS011;21292;52.416;13.046;2024-03-25T11:01:53;4.68;;;2.40;;
35114;SDS011;21292;52.416;13.046;2024-03-25T11:04:20;4.80;;;2.65;;
35114;SDS011;21292;52.416;13.046;2024-03-25T11:06:47;5.82;;;2.40;;
35114;SDS011;21292;52.416;13.046;2024-03-25T11:09:26;5.30;;;2.58;;
35114;SDS011;21292;52.416;13.046;2024-03-25T11:11:52;5.05;;;2.20;;
35114;SDS011;21292;52.416;13.046;2024-03-25T11:14:19;7.60;;;2.30;;
35114;SDS011;21292;52.416;13.046;2024-03-25T11:16:54;4.53;;;2.25;;
35114;SDS011;21292;52.416;13.046;2024-03-25T11:19:25;4.93;;;2.25;;
35114;SDS011;21292;52.416;13.046;2024-03-25T11:21:52;6.43;;;3.20;;
35114;SDS011;21292;52.416;13.046;2024-03-25T11:24:28;13.93;;;2.88;;
35114;SDS011;21292;52.416;13.046;2024-03-25T11:26:55;4.72;;;2.42;;
35114;SDS011;21292;52.416;13.046;2024-03-25T11:29:22;6.38;;;1.92;;
35114;SDS011;21292;52.416;13.046;2024-03-25T11:31:48;3.72;;;2.25;;
35114;SDS011;21292;52.416;13.046;2024-03-25T11:34:15;4.72;;;1.83;;
35114;SDS011;21292;52.416;13.046;2024-03-25T11:36:42;5.00;;;1.52;;
35114;SDS011;21292;52.416;13.046;2024-03-25T11:39:08;4.53;;;1.52;;
35114;SDS011;21292;52.416;13.046;2024-03-25T11:41:41;4.72;;;1.67;;
35114;SDS011;21292;52.416;13.046;2024-03-25T11:44:08;2.95;;;1.50;;
35114;SDS011;21292;52.416;13.046;2024-03-25T11:46:36;1.88;;;1.58;;
35114;SDS011;21292;52.416;13.046;2024-03-25T11:49:21;2.53;;;1.42;;
35114;SDS011;21292;52.416;13.046;2024-03-25T11:51:48;4.90;;;1.40;;
35114;SDS011;21292;52.416;13.046;2024-03-25T11:54:14;5.68;;;1.70;;
35114;SDS011;21292;52.416;13.046;2024-03-25T11:56:40;6.28;;;1.35;;
35114;SDS011;21292;52.416;13.046;2024-03-25T11:59:08;7.30;;;1.17;;
35114;SDS011;21292;52.416;13.046;2024-03-25T12:01:34;2.92;;;1.10;;
35114;SDS011;21292;52.416;13.046;2024-03-25T12:04:17;2.20;;;1.40;;
35114;SDS011;21292;52.416;13.046;2024-03-25T12:06:44;1.77;;;1.40;;
35114;SDS011;21292;52.416;13.046;2024-03-25T12:09:12;3.17;;;1.20;;
35114;SDS011;21292;52.416;13.046;2024-03-25T12:11:56;1.73;;;1.63;;
35114;SDS011;21292;52.416;13.046;2024-03-25T12:14:26;2.58;;;1.65;;
35114;SDS011;21292;52.416;13.046;2024-03-25T12:16:53;3.90;;;1.48;;
35114;SDS011;21292;52.416;13.046;2024-03-25T12:19:19;2.40;;;1.10;;
35114;SDS011;21292;52.416;13.046;2024-03-25T12:21:46;2.28;;;1.50;;
35114;SDS011;21292;52.416;13.046;2024-03-25T12:24:13;2.05;;;1.42;;
35114;SDS011;21292;52.416;13.046;2024-03-25T12:26:39;4.00;;;1.42;;
35114;SDS011;21292;52.416;13.046;2024-03-25T12:29:06;1.35;;;1.20;;
35114;SDS011;21292;52.416;13.046;2024-03-25T12:31:32;4.43;;;2.00;;
35114;SDS011;21292;52.416;13.046;2024-03-25T12:33:58;1.73;;;1.45;;
35114;SDS011;21292;52.416;13.046;2024-03-25T12:36:24;4.30;;;1.73;;
35114;SDS011;21292;52.416;13.046;2024-03-25T12:38:54;3.60;;;1.48;;
35114;SDS011;21292;52.416;13.046;2024-03-25T12:41:24;3.90;;;1.30;;
35114;SDS011;21292;52.416;13.046;2024-03-25T12:43:50;2.15;;;1.17;;
35114;SDS011;21292;52.416;13.046;2024-03-25T12:46:17;1.77;;;1.20;;
35114;SDS011;21292;52.416;13.046;2024-03-25T12:48:44;4.45;;;1.60;;
35114;SDS011;21292;52.416;13.046;2024-03-25T12:51:13;4.75;;;1.63;;
35114;SDS011;21292;52.416;13.046;2024-03-25T12:53:40;2.90;;;1.33;;
35114;SDS011;21292;52.416;13.046;2024-03-25T12:56:06;4.25;;;1.67;;
35114;SDS011;21292;52.416;13.046;2024-03-25T12:58:33;2.92;;;1.40;;
35114;SDS011;21292;52.416;13.046;2024-03-25T13:01:01;3.60;;;1.30;;
35114;SDS011;21292;52.416;13.046;2024-03-25T13:03:28;4.40;;;1.40;;
35114;SDS011;21292;52.416;13.046;2024-03-25T13:05:54;1.33;;;1.23;;
35114;SDS011;21292;52.416;13.046;2024-03-25T13:08:20;5.43;;;1.65;;
35114;SDS011;21292;52.416;13.046;2024-03-25T13:10:47;3.30;;;1.40;;
35114;SDS011;21292;52.416;13.046;2024-03-25T13:13:13;2.20;;;1.25;;
35114;SDS011;21292;52.416;13.046;2024-03-25T13:15:40;2.58;;;1.75;;
35114;SDS011;21292;52.416;13.046;2024-03-25T13:18:06;2.85;;;1.40;;
35114;SDS011;21292;52.416;13.046;2024-03-25T13:20:32;2.25;;;1.48;;
35114;SDS011;21292;52.416;13.046;2024-03-25T13:23:04;3.47;;;1.45;;
35114;SDS011;21292;52.416;13.046;2024-03-25T13:25:43;4.38;;;1.33;;
35114;SDS011;21292;52.416;13.046;2024-03-25T13:28:09;2.85;;;1.10;;
35114;SDS011;21292;52.416;13.046;2024-03-25T13:30:35;6.78;;;1.38;;
35114;SDS011;21292;52.416;13.046;2024-03-25T13:33:01;3.25;;;1.30;;
35114;SDS011;21292;52.416;13.046;2024-03-25T13:35:29;5.63;;;1.98;;
35114;SDS011;21292;52.416;13.046;2024-03-25T13:37:55;3.83;;;1.80;;
35114;SDS011;21292;52.416;13.046;2024-03-25T13:40:21;2.28;;;1.10;;
35114;SDS011;21292;52.416;13.046;2024-03-25T13:42:47;1.38;;;1.27;;
35114;SDS011;21292;52.416;13.046;2024-03-25T13:45:14;2.53;;;1.30;;
35114;SDS011;21292;52.416;13.046;2024-03-25T13:47:41;2.67;;;1.30;;
35114;SDS011;21292;52.416;13.046;2024-03-25T13:50:07;2.13;;;1.05;;
35114;SDS011;21292;52.416;13.046;2024-03-25T13:52:33;5.47;;;1.35;;
35114;SDS011;21292;52.416;13.046;2024-03-25T13:55:00;1.60;;;1.25;;
35114;SDS011;21292;52.416;13.046;2024-03-25T13:57:28;6.47;;;1.60;;
35114;SDS011;21292;52.416;13.046;2024-03-25T13:59:55;2.75;;;1.20;;
35114;SDS011;21292;52.416;13.046;2024-03-25T14:02:21;5.28;;;1.02;;
35114;SDS011;21292;52.416;13.046;2024-03-25T14:04:47;3.88;;;1.40;;
35114;SDS011;21292;52.416;13.046;2024-03-25T14:07:13;3.80;;;1.40;;
35114;SDS011;21292;52.416;13.046;2024-03-25T14:09:40;1.17;;;1.08;;
35114;SDS011;21292;52.416;13.046;2024-03-25T14:12:06;3.30;;;1.42;;
35114;SDS011;21292;52.416;13.046;2024-03-25T14:14:32;2.20;;;1.38;;
35114;SDS011;21292;52.416;13.046;2024-03-25T14:16:58;1.75;;;1.10;;
35114;SDS011;21292;52.416;13.046;2024-03-25T14:19:25;2.00;;;0.95;;
35114;SDS011;21292;52.416;13.046;2024-03-25T14:21:51;1.40;;;0.93;;
35114;SDS011;21292;52.416;13.046;2024-03-25T14:24:17;3.60;;;0.82;;
35114;SDS011;21292;52.416;13.046;2024-03-25T14:26:43;2.10;;;1.08;;
35114;SDS011;21292;52.416;13.046;2024-03-25T14:29:11;3.33;;;1.13;;
35114;SDS011;21292;52.416;13.046;2024-03-25T14:31:37;2.97;;;1.25;;